Stations météo

Publicité
Toulon Arsenal, France (7660): Température de l'air & dewpoint: 11.02.2019 16:00:00 - 17.02.2019 16:00:00 (CET)Toulon Arsenal, France (7660): Vitesse du vent & gusts: 11.02.2019 16:00:00 - 17.02.2019 16:00:00 (CET)Toulon Arsenal, France (7660): Direction du vent: 11.02.2019 16:00:00 - 17.02.2019 16:00:00 (CET)Toulon Arsenal, France (7660): Quantités de précipitations: 11.02.2019 16:00:00 - 17.02.2019 16:00:00 (CET)
Date & Time tt [°C] td [°C] ff [km/h] ff [knt] fx [km/h] fx [knt] dd rr [mm]
17.02.2019 16:00:00 14,6 7,6 5 3 15 8 S 0,0
17.02.2019 15:00:00 14,1 8,3 8 4 16 9 SE 0,0
17.02.2019 14:00:00 14,0 8,4 9 5 18 10 SE 0,0
17.02.2019 13:00:00 14,5 9,1 8 4 16 9 SE -
17.02.2019 12:00:00 14,2 8,8 8 4 16 9 ESE 0,0
17.02.2019 11:00:00 13,9 8,3 5 3 11 6 ESE 0,0
17.02.2019 10:00:00 10,7 4,6 4 2 8 4 ESE 0,0
17.02.2019 09:00:00 7,2 5,0 0 0 5 3 N 0,0
17.02.2019 08:00:00 4,0 2,8 2 1 8 4 E 0,0
17.02.2019 07:00:00 3,3 2,1 0 0 4 2 N -
17.02.2019 06:00:00 3,7 2,4 0 0 13 7 N 0,2
17.02.2019 05:00:00 4,1 2,4 0 0 5 3 N 0,0
17.02.2019 04:00:00 4,4 2,4 2 1 4 2 NNW 0,0
17.02.2019 03:00:00 4,9 2,6 4 2 8 4 SW 0,0
17.02.2019 02:00:00 3,9 1,8 0 0 4 2 N 0,0
17.02.2019 01:00:00 4,5 2,4 0 0 5 3 N -
17.02.2019 00:00:00 5,0 2,7 0 0 4 2 N 0,0
16.02.2019 23:00:00 5,5 3,3 0 0 4 2 N 0,0
16.02.2019 22:00:00 6,2 4,2 2 1 5 3 N 0,0
16.02.2019 21:00:00 7,4 5,2 4 2 8 4 N 0,0
16.02.2019 20:00:00 8,5 5,8 2 1 8 4 NNW 0,0
16.02.2019 19:00:00 10,1 7,7 4 2 8 4 N -
16.02.2019 18:00:00 13,7 8,5 4 2 11 6 SE 0,0
16.02.2019 17:00:00 14,8 8,1 8 4 15 8 SE 0,0
16.02.2019 16:00:00 15,9 6,3 8 4 21 11 SSE 0,0
16.02.2019 15:00:00 15,3 4,9 11 6 26 14 SE 0,0
16.02.2019 14:00:00 15,4 5,3 13 7 26 14 SE 0,0
16.02.2019 13:00:00 15,5 3,6 18 10 26 14 SE -
16.02.2019 12:00:00 16,6 2,6 5 3 13 7 SSE 0,0
16.02.2019 11:00:00 13,8 4,9 4 2 8 4 ESE 0,0
16.02.2019 10:00:00 11,3 4,7 4 2 5 3 SE 0,0
16.02.2019 09:00:00 6,4 4,4 0 0 4 2 N 0,0
16.02.2019 08:00:00 3,1 2,1 2 1 5 3 ENE 0,0
16.02.2019 07:00:00 2,6 1,4 2 1 5 3 NNW -
16.02.2019 06:00:00 3,0 1,7 2 1 8 4 SW 0,0
16.02.2019 05:00:00 3,4 1,9 2 1 8 4 W 0,0
16.02.2019 04:00:00 3,8 2,0 2 1 9 5 NW 0,0
16.02.2019 03:00:00 4,7 2,7 4 2 9 5 NW 0,2
16.02.2019 02:00:00 5,1 2,3 2 1 9 5 NNE 0,0
16.02.2019 01:00:00 5,0 3,0 4 2 8 4 NNW -
16.02.2019 00:00:00 5,2 3,0 2 1 5 3 N 0,0
15.02.2019 23:00:00 6,0 3,5 2 1 4 2 NW 0,0
15.02.2019 22:00:00 6,6 4,1 2 1 5 3 NW 0,0
15.02.2019 21:00:00 7,6 4,5 2 1 8 4 N 0,0
15.02.2019 20:00:00 10,2 5,8 5 3 15 8 NNW 0,0
15.02.2019 19:00:00 11,8 7,9 8 4 18 10 W -
15.02.2019 18:00:00 13,1 7,7 11 6 26 14 W 0,0
15.02.2019 17:00:00 14,6 6,9 13 7 28 15 W 0,0
15.02.2019 16:00:00 15,1 6,4 15 8 29 16 W 0,0
15.02.2019 15:00:00 15,5 1,9 16 9 31 17 W 0,0
15.02.2019 14:00:00 15,7 1,8 15 8 26 14 WSW 0,0
15.02.2019 13:00:00 15,5 5,7 8 4 15 8 WSW -
15.02.2019 12:00:00 14,7 4,7 8 4 15 8 W 0,0
15.02.2019 11:00:00 13,2 4,3 4 2 9 5 SW 0,0
15.02.2019 10:00:00 11,0 3,0 2 1 5 3 SSE 0,0
15.02.2019 09:00:00 5,6 2,4 4 2 8 4 W 0,0
15.02.2019 08:00:00 1,7 0,2 0 0 5 3 N 0,0
15.02.2019 07:00:00 1,5 0,0 0 0 4 2 N -
15.02.2019 06:00:00 1,6 0,3 2 1 4 2 N 0,0
15.02.2019 05:00:00 2,0 0,7 0 0 4 2 N 0,0
15.02.2019 04:00:00 2,4 1,1 2 1 5 3 WNW 0,0
15.02.2019 03:00:00 3,2 1,9 2 1 5 3 NW 0,0
15.02.2019 02:00:00 3,3 2,0 0 0 5 3 N 0,0
15.02.2019 01:00:00 4,1 2,6 2 1 5 3 W -
15.02.2019 00:00:00 5,1 3,6 0 0 8 4 N 0,0
14.02.2019 23:00:00 6,4 4,1 2 1 13 7 NW 0,0
14.02.2019 22:00:00 7,9 5,2 4 2 15 8 NW 0,0
14.02.2019 21:00:00 9,4 6,5 8 4 16 9 W 0,0
14.02.2019 20:00:00 9,9 6,8 8 4 16 9 W 0,0
14.02.2019 19:00:00 11,0 7,5 9 5 18 10 W -
14.02.2019 18:00:00 12,3 7,4 9 5 18 10 W 0,0
14.02.2019 17:00:00 13,7 7,0 9 5 18 10 W 0,0
14.02.2019 16:00:00 14,7 7,5 9 5 18 10 W 0,0
14.02.2019 15:00:00 15,0 6,5 11 6 18 10 W 0,0
14.02.2019 14:00:00 15,8 6,5 8 4 13 7 WSW 0,0
14.02.2019 13:00:00 15,6 5,8 4 2 9 5 SE -
14.02.2019 12:00:00 15,2 4,5 4 2 9 5 SSE 0,0
14.02.2019 11:00:00 13,3 2,5 2 1 5 3 S 0,0
14.02.2019 10:00:00 10,6 4,3 0 0 5 3 N 0,2
14.02.2019 09:00:00 7,7 5,7 0 0 4 2 N 0,0
14.02.2019 08:00:00 4,2 3,0 0 0 8 4 N 0,0
14.02.2019 07:00:00 4,6 3,3 2 1 9 5 NNW -
14.02.2019 06:00:00 5,9 4,4 4 2 9 5 WNW 0,0
14.02.2019 05:00:00 6,6 4,1 4 2 8 4 W 0,0
14.02.2019 04:00:00 7,6 5,4 2 1 15 8 N 0,0
14.02.2019 03:00:00 9,1 6,0 4 2 21 11 ENE 0,0
14.02.2019 02:00:00 7,1 5,4 4 2 13 7 NE 0,0
14.02.2019 01:00:00 7,0 5,0 4 2 11 6 N -
14.02.2019 00:00:00 7,6 5,6 5 3 11 6 NNE 0,0
13.02.2019 23:00:00 8,0 5,8 5 3 9 5 N 0,0
13.02.2019 22:00:00 9,4 6,7 4 2 15 8 NE 0,0
13.02.2019 21:00:00 9,3 6,6 4 2 15 8 NE 0,0
13.02.2019 20:00:00 11,1 7,6 8 4 16 9 E 0,0
13.02.2019 19:00:00 11,7 7,2 8 4 24 13 E -
13.02.2019 18:00:00 12,6 7,9 16 9 35 19 ESE 0,0
13.02.2019 17:00:00 13,6 7,4 16 9 39 21 ESE 0,0
13.02.2019 16:00:00 14,3 6,4 18 10 42 23 ESE 0,0
13.02.2019 15:00:00 14,6 5,7 22 12 46 25 ESE 0,0
13.02.2019 14:00:00 15,2 3,0 26 14 46 25 ESE 0,0
13.02.2019 13:00:00 15,5 4,2 22 12 41 22 E -
13.02.2019 12:00:00 15,2 5,1 21 11 42 23 ESE 0,0
13.02.2019 11:00:00 14,8 3,3 22 12 42 23 E 0,0
13.02.2019 10:00:00 14,1 2,9 16 9 50 27 E 0,0
13.02.2019 09:00:00 12,9 4,1 13 7 31 17 E 0,0
13.02.2019 08:00:00 10,7 4,8 15 8 24 13 E 0,0
13.02.2019 07:00:00 9,8 4,8 13 7 28 15 E -
13.02.2019 06:00:00 10,3 4,6 13 7 29 16 ESE 0,0
13.02.2019 05:00:00 10,0 3,9 9 5 28 15 E 0,0
13.02.2019 04:00:00 8,4 3,8 9 5 22 12 E 0,0
13.02.2019 03:00:00 3,9 -0,5 4 2 8 4 NW 0,0
13.02.2019 02:00:00 4,0 -0,8 2 1 11 6 NW 0,0
13.02.2019 01:00:00 3,9 -1,3 5 3 8 4 NNW -
13.02.2019 00:00:00 4,0 -1,6 2 1 8 4 NW 0,0
12.02.2019 23:00:00 5,5 -0,6 4 2 8 4 WNW 0,0
12.02.2019 22:00:00 6,0 -0,1 2 1 9 5 WNW 0,0
12.02.2019 21:00:00 7,1 1,6 2 1 9 5 NNW 0,0
12.02.2019 20:00:00 8,7 2,9 2 1 11 6 NNE 0,0
12.02.2019 19:00:00 10,5 4,0 0 0 9 5 N -
12.02.2019 18:00:00 13,6 4,7 5 3 28 15 W 0,0
12.02.2019 17:00:00 14,2 3,3 9 5 24 13 W 0,0
12.02.2019 16:00:00 15,4 1,5 15 8 28 15 W 0,0
12.02.2019 15:00:00 15,3 0,7 15 8 24 13 W 0,0
12.02.2019 14:00:00 15,2 -2,7 8 4 16 9 W 0,0
12.02.2019 13:00:00 14,9 0,3 4 2 13 7 SE -
12.02.2019 12:00:00 14,1 -2,0 4 2 9 5 SE 0,0
12.02.2019 11:00:00 12,8 -0,5 4 2 8 4 S 0,0
12.02.2019 10:00:00 11,0 -2,4 2 1 8 4 SW 0,0
12.02.2019 09:00:00 5,4 -2,4 5 3 8 4 N 0,0
12.02.2019 08:00:00 2,5 -3,6 8 4 11 6 NNW 0,0
12.02.2019 07:00:00 2,8 -3,6 4 2 11 6 N -
12.02.2019 06:00:00 3,2 -3,6 4 2 9 5 NNW 0,0
12.02.2019 05:00:00 4,2 -4,1 2 1 15 8 E 0,0
12.02.2019 04:00:00 6,3 -4,5 4 2 22 12 W 0,0
12.02.2019 03:00:00 8,1 -3,4 9 5 26 14 W 0,0
12.02.2019 02:00:00 9,3 -5,0 4 2 31 17 S 0,0
12.02.2019 01:00:00 9,4 -5,3 13 7 34 18 WNW -
12.02.2019 00:00:00 9,2 -3,7 11 6 37 20 WSW 0,0
11.02.2019 23:00:00 9,3 -4,7 11 6 46 25 WNW 0,0
11.02.2019 22:00:00 10,1 -4,7 22 12 65 35 WNW 0,0
11.02.2019 21:00:00 11,1 -6,3 22 12 57 31 WNW 0,0
11.02.2019 20:00:00 11,0 -5,5 24 13 61 33 WNW 0,0
11.02.2019 19:00:00 11,1 -4,6 28 15 65 35 WNW -
11.02.2019 18:00:00 11,6 -4,6 28 15 68 37 WNW 0,0
11.02.2019 17:00:00 12,4 -5,2 28 15 65 35 WNW 0,0
11.02.2019 16:00:00 12,7 -4,9 34 18 70 38 WNW 0,0

tt = Température de l'air
td = dewpoint
ff = Vitesse du vent
fx = gusts
dd = Direction du vent
rr = Quantités de précipitations

stations d'obs. à proximité